createdAt,value
2019-03-02T00:00:03.269Z,6.78
2019-03-02T00:02:37.354Z,7.28
2019-03-02T00:05:08.518Z,7.55
2019-03-02T00:07:43.851Z,7.15
2019-03-02T00:10:13.947Z,7.25
2019-03-02T00:12:45.618Z,6.70
2019-03-02T00:15:17.634Z,6.97
2019-03-02T00:17:50.629Z,6.53
2019-03-02T00:20:21.910Z,6.62
2019-03-02T00:22:53.164Z,6.92
2019-03-02T00:25:25.130Z,7.05
2019-03-02T00:27:58.130Z,7.03
2019-03-02T00:30:30.717Z,7.17
2019-03-02T00:33:02.046Z,6.40
2019-03-02T00:35:33.912Z,6.20
2019-03-02T00:38:08.929Z,6.67
2019-03-02T00:40:38.134Z,6.60
2019-03-02T00:43:09.950Z,5.65
2019-03-02T00:45:41.531Z,6.12
2019-03-02T00:48:13.299Z,6.40
2019-03-02T00:50:45.462Z,6.70
2019-03-02T00:53:16.723Z,5.92
2019-03-02T00:55:47.713Z,5.90
2019-03-02T00:58:19.279Z,5.78
2019-03-02T01:00:53.677Z,6.28
2019-03-02T01:03:24.535Z,5.85
2019-03-02T01:05:55.801Z,6.00
2019-03-02T01:08:27.417Z,5.65
2019-03-02T01:10:59.115Z,5.97
2019-03-02T01:13:30.465Z,5.53
2019-03-02T01:16:01.465Z,6.03
2019-03-02T01:18:32.748Z,6.00
2019-03-02T01:21:05.078Z,6.60
2019-03-02T01:23:36.885Z,6.58
2019-03-02T01:26:08.539Z,6.60
2019-03-02T01:28:41.656Z,6.80
2019-03-02T01:31:13.577Z,7.00
2019-03-02T01:33:44.920Z,6.80
2019-03-02T01:36:16.498Z,6.30
2019-03-02T01:38:50.623Z,6.70
2019-03-02T01:41:22.435Z,6.67
2019-03-02T01:43:54.324Z,6.92
2019-03-02T01:46:25.883Z,6.90
2019-03-02T01:48:58.642Z,6.72
2019-03-02T01:51:29.982Z,7.33
2019-03-02T01:54:01.251Z,7.37
2019-03-02T01:56:32.786Z,7.55
2019-03-02T01:59:04.051Z,7.53
2019-03-02T02:01:36.158Z,7.45
2019-03-02T02:04:07.745Z,7.67
2019-03-02T02:06:39.786Z,7.42
2019-03-02T02:09:12.471Z,7.72
2019-03-02T02:11:44.895Z,7.90
2019-03-02T02:14:18.650Z,8.18
2019-03-02T02:16:49.998Z,7.45
2019-03-02T02:19:21.703Z,8.25
2019-03-02T02:21:53.436Z,8.58
2019-03-02T02:24:25.727Z,8.58
2019-03-02T02:26:56.774Z,9.28
2019-03-02T02:29:28.495Z,8.70
2019-03-02T02:32:00.392Z,8.33
2019-03-02T02:34:31.725Z,9.28
2019-03-02T02:37:03.898Z,8.10
2019-03-02T02:39:35.885Z,8.00
2019-03-02T02:42:07.416Z,8.70
2019-03-02T02:44:39.346Z,9.43
2019-03-02T02:47:13.929Z,9.30
2019-03-02T02:49:49.146Z,8.90
2019-03-02T02:52:27.603Z,8.23
2019-03-02T02:54:57.501Z,9.18
2019-03-02T02:57:26.235Z,8.43
2019-03-02T02:59:57.891Z,8.93
2019-03-02T03:02:29.988Z,9.00
2019-03-02T03:05:01.264Z,9.40
2019-03-02T03:07:33.470Z,9.50
2019-03-02T03:10:39.951Z,8.73
2019-03-02T03:13:11.279Z,8.35
2019-03-02T03:15:44.917Z,8.63
2019-03-02T03:18:16.240Z,8.63
2019-03-02T03:20:50.250Z,8.70
2019-03-02T03:23:24.978Z,8.68
2019-03-02T03:25:57.003Z,8.33
2019-03-02T03:28:30.720Z,8.68
2019-03-02T03:31:02.299Z,8.78
2019-03-02T03:33:42.167Z,8.60
2019-03-02T03:36:06.844Z,8.13
2019-03-02T03:38:38.363Z,7.95
2019-03-02T03:41:10.477Z,8.25
2019-03-02T03:43:44.295Z,7.97
2019-03-02T03:46:17.779Z,7.47
2019-03-02T03:48:56.360Z,8.00
2019-03-02T03:51:26.112Z,7.53
2019-03-02T03:54:01.493Z,9.53
2019-03-02T03:56:32.366Z,7.97
2019-03-02T03:59:03.606Z,7.92
2019-03-02T04:01:35.450Z,8.18
2019-03-02T04:04:07.122Z,8.43
2019-03-02T04:06:38.953Z,8.35
2019-03-02T04:09:10.859Z,9.00
2019-03-02T04:11:43.481Z,8.65
2019-03-02T04:14:19.099Z,8.53
2019-03-02T04:16:48.521Z,7.78
2019-03-02T04:19:29.442Z,8.88
2019-03-02T04:22:02.098Z,8.63
2019-03-02T04:24:39.188Z,7.97
2019-03-02T04:27:11.167Z,8.20
2019-03-02T04:29:49.021Z,7.37
2019-03-02T04:32:14.110Z,7.70
2019-03-02T04:34:45.890Z,6.72
2019-03-02T04:37:20.360Z,6.85
2019-03-02T04:39:50.241Z,6.60
2019-03-02T04:42:23.028Z,7.00
2019-03-02T04:44:54.715Z,6.87
2019-03-02T04:47:27.304Z,7.30
2019-03-02T04:49:58.917Z,6.50
2019-03-02T04:52:29.917Z,6.65
2019-03-02T04:55:01.203Z,6.00
2019-03-02T04:57:36.137Z,6.00
2019-03-02T05:00:10.928Z,6.87
2019-03-02T05:02:42.003Z,6.42
2019-03-02T05:05:13.419Z,6.08
2019-03-02T05:07:45.282Z,6.60
2019-03-02T05:10:16.623Z,6.28
2019-03-02T05:12:49.786Z,6.50
2019-03-02T05:15:22.626Z,6.45
2019-03-02T05:17:54.395Z,5.85
2019-03-02T05:20:25.714Z,5.72
2019-03-02T05:22:57.813Z,5.80
2019-03-02T05:25:29.736Z,5.65
2019-03-02T05:28:03.820Z,6.10
2019-03-02T05:30:35.023Z,6.87
2019-03-02T05:33:06.693Z,7.42
2019-03-02T05:35:38.709Z,7.30
2019-03-02T05:38:11.764Z,6.35
2019-03-02T05:40:43.734Z,7.08
2019-03-02T05:43:15.202Z,6.15
2019-03-02T05:45:46.889Z,6.40
2019-03-02T05:48:18.508Z,6.22
2019-03-02T05:50:50.519Z,6.10
2019-03-02T05:53:22.357Z,6.08
2019-03-02T05:55:54.966Z,6.37
2019-03-02T05:58:26.658Z,6.03
2019-03-02T06:00:58.254Z,6.33
2019-03-02T06:03:29.555Z,6.53
2019-03-02T06:06:00.821Z,6.10
2019-03-02T06:08:35.623Z,6.78
2019-03-02T06:11:06.758Z,6.25
2019-03-02T06:13:37.997Z,6.65
2019-03-02T06:16:09.315Z,6.67
2019-03-02T06:18:42.539Z,7.35
2019-03-02T06:21:14.440Z,7.12
2019-03-02T06:23:46.183Z,7.65
2019-03-02T06:26:18.504Z,7.35
2019-03-02T06:28:51.187Z,7.22
2019-03-02T06:31:23.153Z,6.40
2019-03-02T06:33:55.630Z,6.30
2019-03-02T06:36:27.079Z,6.67
2019-03-02T06:38:59.169Z,6.75
2019-03-02T06:41:33.160Z,7.03
2019-03-02T06:44:03.658Z,6.58
2019-03-02T06:46:35.082Z,9.33
2019-03-02T06:49:07.528Z,7.58
2019-03-02T06:51:39.546Z,6.83
2019-03-02T06:54:31.042Z,7.03
2019-03-02T06:57:03.670Z,7.05
2019-03-02T06:59:35.860Z,7.08
2019-03-02T07:02:08.964Z,8.13
2019-03-02T07:04:41.178Z,7.37
2019-03-02T07:07:13.477Z,7.35
2019-03-02T07:09:46.159Z,14.70
2019-03-02T07:12:17.572Z,13.05
2019-03-02T07:14:51.724Z,11.55
2019-03-02T07:18:01.911Z,7.58
2019-03-02T07:20:35.274Z,6.80
2019-03-02T07:23:07.380Z,7.40
2019-03-02T07:25:40.744Z,7.58
2019-03-02T07:28:13.164Z,7.15
2019-03-02T07:30:44.670Z,6.70
2019-03-02T07:33:16.451Z,7.47
2019-03-02T07:35:51.724Z,7.87
2019-03-02T07:38:22.476Z,7.03
2019-03-02T07:40:54.455Z,7.03
2019-03-02T07:43:25.925Z,7.40
2019-03-02T07:45:57.237Z,6.95
2019-03-02T07:48:39.643Z,7.35
2019-03-02T07:51:13.227Z,6.62
2019-03-02T07:53:45.073Z,7.20
2019-03-02T07:56:16.533Z,11.33
2019-03-02T07:58:51.943Z,9.48
2019-03-02T08:01:22.854Z,7.95
2019-03-02T08:03:55.946Z,7.65
2019-03-02T08:06:28.062Z,7.47
2019-03-02T08:09:00.434Z,7.40
2019-03-02T08:11:33.953Z,7.92
2019-03-02T08:14:08.901Z,7.62
2019-03-02T08:16:40.614Z,7.62
2019-03-02T08:19:12.410Z,7.53
2019-03-02T08:21:44.418Z,7.70
2019-03-02T08:24:17.121Z,6.50
2019-03-02T08:26:48.856Z,7.15
2019-03-02T08:29:21.842Z,8.58
2019-03-02T08:31:53.981Z,7.80
2019-03-02T08:34:27.234Z,7.78
2019-03-02T08:36:59.259Z,8.93
2019-03-02T08:39:31.588Z,9.13
2019-03-02T08:42:03.412Z,8.20
2019-03-02T08:44:35.753Z,7.33
2019-03-02T08:50:27.625Z,10.60
2019-03-02T08:53:00.368Z,9.08
2019-03-02T08:55:33.567Z,8.05
2019-03-02T08:58:06.042Z,8.45
2019-03-02T09:00:38.919Z,7.47
2019-03-02T09:03:10.897Z,8.60
2019-03-02T09:05:46.931Z,8.08
2019-03-02T09:08:16.557Z,8.20
2019-03-02T09:10:49.126Z,7.85
2019-03-02T09:13:22.255Z,8.78
2019-03-02T09:15:53.563Z,8.25
2019-03-02T09:18:25.305Z,8.10
2019-03-02T09:20:56.973Z,8.15
2019-03-02T09:23:29.145Z,8.45
2019-03-02T09:26:01.044Z,8.15
2019-03-02T09:28:34.431Z,8.85
2019-03-02T09:31:06.470Z,8.83
2019-03-02T09:33:38.767Z,8.25
2019-03-02T09:36:10.694Z,8.40
2019-03-02T09:38:43.060Z,8.88
2019-03-02T09:41:15.369Z,8.70
2019-03-02T09:43:47.678Z,8.68
2019-03-02T09:46:21.255Z,8.90
2019-03-02T09:48:53.002Z,9.00
2019-03-02T09:51:25.176Z,8.90
2019-03-02T09:53:57.066Z,11.00
2019-03-02T09:56:28.903Z,9.58
2019-03-02T09:59:01.664Z,10.30
2019-03-02T10:01:35.706Z,9.78
2019-03-02T10:04:08.254Z,8.75
2019-03-02T10:06:40.109Z,9.35
2019-03-02T10:09:12.921Z,10.13
2019-03-02T10:11:44.596Z,10.85
2019-03-02T10:14:27.558Z,9.63
2019-03-02T10:17:00.321Z,11.22
2019-03-02T10:19:32.108Z,11.05
2019-03-02T10:22:03.742Z,11.25
2019-03-02T10:24:35.751Z,10.48
2019-03-02T10:27:07.160Z,10.65
2019-03-02T10:29:39.014Z,10.10
2019-03-02T10:32:10.362Z,10.10
2019-03-02T10:34:42.910Z,9.25
2019-03-02T10:37:14.695Z,8.95
2019-03-02T10:39:46.267Z,9.23
2019-03-02T10:42:18.054Z,9.30
2019-03-02T10:44:49.926Z,9.45
2019-03-02T10:47:21.493Z,9.48
2019-03-02T10:49:53.484Z,9.48
2019-03-02T10:52:25.350Z,9.37
2019-03-02T10:54:57.313Z,9.37
2019-03-02T10:57:29.609Z,8.70
2019-03-02T11:00:00.929Z,9.28
2019-03-02T11:02:33.870Z,9.60
2019-03-02T11:05:21.087Z,9.80
2019-03-02T11:08:01.988Z,10.00
2019-03-02T11:10:59.879Z,9.97
2019-03-02T11:13:40.388Z,9.33
2019-03-02T11:16:37.883Z,9.18
2019-03-02T11:19:24.648Z,9.90
2019-03-02T11:22:15.140Z,9.05
2019-03-02T11:24:55.505Z,9.43
2019-03-02T11:27:49.776Z,10.32
2019-03-02T11:30:56.202Z,8.70
2019-03-02T11:33:52.448Z,9.18
2019-03-02T11:36:41.411Z,6.12
2019-03-02T11:39:19.096Z,6.25
2019-03-02T11:41:59.074Z,8.90
2019-03-02T11:44:46.530Z,9.13
2019-03-02T11:47:39.846Z,7.78
2019-03-02T11:50:26.478Z,8.58
2019-03-02T11:53:06.228Z,8.88
2019-03-02T11:55:59.241Z,8.68
2019-03-02T11:58:57.459Z,6.53
2019-03-02T12:01:47.917Z,6.03
2019-03-02T12:04:30.830Z,5.97
2019-03-02T12:07:14.971Z,6.50
2019-03-02T12:10:11.168Z,7.75
2019-03-02T12:12:56.737Z,7.03
2019-03-02T12:15:49.366Z,6.75
2019-03-02T12:18:37.017Z,6.97
2019-03-02T12:21:42.328Z,6.83
2019-03-02T12:24:39.367Z,6.78
2019-03-02T12:27:30.302Z,6.75
2019-03-02T12:30:16.608Z,6.90
2019-03-02T12:32:55.182Z,7.72
2019-03-02T12:35:34.424Z,6.72
2019-03-02T12:38:33.424Z,7.00
2019-03-02T12:41:21.981Z,7.47
2019-03-02T12:44:12.353Z,6.90
2019-03-02T12:47:04.997Z,6.72
2019-03-02T12:49:54.366Z,6.92
2019-03-02T12:52:53.754Z,9.30
2019-03-02T12:55:35.406Z,8.35
2019-03-02T12:58:12.552Z,9.05
2019-03-02T13:00:54.043Z,8.40
2019-03-02T13:03:43.110Z,8.73
2019-03-02T13:06:20.482Z,9.28
2019-03-02T13:09:09.505Z,10.45
2019-03-02T13:11:49.035Z,9.88
2019-03-02T13:14:42.049Z,9.88
2019-03-02T13:17:33.116Z,9.85
2019-03-02T13:20:19.058Z,8.90
2019-03-02T13:23:09.446Z,10.13
2019-03-02T13:25:58.290Z,10.85
2019-03-02T13:28:37.130Z,10.90
2019-03-02T13:31:23.713Z,9.53
2019-03-02T13:34:12.884Z,9.63
2019-03-02T13:36:56.124Z,9.55
2019-03-02T13:39:39.274Z,10.70
2019-03-02T13:42:42.223Z,8.60
2019-03-02T13:45:21.068Z,9.17
2019-03-02T13:48:10.515Z,8.07
2019-03-02T13:50:53.717Z,11.20
2019-03-02T13:53:28.067Z,11.57
2019-03-02T13:56:12.615Z,9.50
2019-03-02T13:58:55.844Z,9.77
2019-03-02T14:01:45.239Z,8.15
2019-03-02T14:04:41.643Z,8.90
2019-03-02T14:07:32.975Z,8.93
2019-03-02T14:10:23.933Z,8.73
2019-03-02T14:13:17.959Z,11.03
2019-03-02T14:16:02.440Z,9.00
2019-03-02T14:18:53.216Z,10.63
2019-03-02T14:21:34.477Z,10.95
2019-03-02T14:24:30.516Z,10.72
2019-03-02T14:27:30.151Z,11.85
2019-03-02T14:30:21.317Z,10.45
2019-03-02T14:32:59.566Z,11.40
2019-03-02T14:35:53.343Z,10.88
2019-03-02T14:38:32.087Z,11.15
2019-03-02T14:41:31.461Z,10.88
2019-03-02T14:44:24.807Z,12.65
2019-03-02T14:47:18.690Z,13.10
2019-03-02T14:50:01.960Z,17.57
2019-03-02T14:52:40.526Z,13.50
2019-03-02T14:55:29.242Z,20.20
2019-03-02T14:58:18.332Z,11.37
2019-03-02T15:01:07.066Z,15.45
2019-03-02T15:03:49.401Z,14.37
2019-03-02T15:06:55.212Z,10.20
2019-03-02T15:09:39.224Z,10.65
2019-03-02T15:12:24.933Z,11.20
2019-03-02T15:15:20.305Z,11.37
2019-03-02T15:18:00.920Z,12.67
2019-03-02T15:20:51.407Z,12.73
2019-03-02T15:23:38.719Z,12.73
2019-03-02T15:26:14.258Z,13.27
2019-03-02T15:29:04.590Z,12.87
2019-03-02T15:31:45.507Z,13.07
2019-03-02T15:34:29.736Z,12.90
2019-03-02T15:37:28.033Z,13.03
2019-03-02T15:40:06.393Z,13.57
2019-03-02T15:43:05.490Z,13.73
2019-03-02T15:45:58.848Z,12.90
2019-03-02T15:48:50.398Z,13.03
2019-03-02T15:51:30.983Z,13.80
2019-03-02T15:54:32.066Z,13.58
2019-03-02T15:57:12.493Z,13.93
2019-03-02T15:59:55.432Z,14.30
2019-03-02T16:02:52.269Z,14.40
2019-03-02T16:05:31.274Z,12.90
2019-03-02T16:08:14.056Z,14.50
2019-03-02T16:11:12.219Z,14.43
2019-03-02T16:14:20.586Z,13.87
2019-03-02T16:17:09.659Z,14.53
2019-03-02T16:19:49.027Z,13.80
2019-03-02T16:22:34.133Z,14.40
2019-03-02T16:25:15.855Z,15.57
2019-03-02T16:27:54.685Z,15.07
2019-03-02T16:30:44.462Z,14.58
2019-03-02T16:33:35.351Z,13.57
2019-03-02T16:36:30.178Z,14.70
2019-03-02T16:39:29.138Z,14.25
2019-03-02T16:42:25.779Z,13.53
2019-03-02T16:45:02.343Z,15.23
2019-03-02T16:47:40.702Z,14.60
2019-03-02T16:50:29.174Z,15.25
2019-03-02T16:53:23.625Z,14.20
2019-03-02T16:56:29.275Z,13.83
2019-03-02T16:59:07.891Z,14.68
2019-03-02T17:02:04.549Z,13.93
2019-03-02T17:04:58.066Z,13.80
2019-03-02T17:07:40.201Z,14.58
2019-03-02T17:10:23.564Z,14.55
2019-03-02T17:13:22.016Z,13.20
2019-03-02T17:16:11.746Z,13.88
2019-03-02T17:18:50.507Z,13.43
2019-03-02T17:21:38.893Z,13.40
2019-03-02T17:24:19.961Z,13.72
2019-03-02T17:27:08.973Z,14.05
2019-03-02T17:29:51.174Z,13.93
2019-03-02T17:32:44.849Z,13.70
2019-03-02T17:35:31.131Z,13.40
2019-03-02T17:38:40.251Z,13.68
2019-03-02T17:41:28.351Z,13.70
2019-03-02T17:44:10.334Z,14.23
2019-03-02T17:46:59.806Z,13.65
2019-03-02T17:50:09.590Z,14.73
2019-03-02T17:52:53.619Z,14.78
2019-03-02T17:56:00.938Z,14.38
2019-03-02T17:58:58.330Z,14.13
2019-03-02T18:01:47.353Z,13.35
2019-03-02T18:04:31.811Z,14.15
2019-03-02T18:07:09.748Z,14.55
2019-03-02T18:10:02.805Z,13.30
2019-03-02T18:12:43.311Z,13.93
2019-03-02T18:15:30.828Z,13.98
2019-03-02T18:18:01.155Z,13.55
2019-03-02T18:20:34.938Z,14.65
2019-03-02T18:23:06.891Z,15.83
2019-03-02T18:25:38.519Z,13.83
2019-03-02T18:28:14.087Z,14.98
2019-03-02T18:30:44.086Z,15.03
2019-03-02T18:33:22.010Z,15.55
2019-03-02T18:35:53.662Z,16.07
2019-03-02T18:38:25.613Z,15.35
2019-03-02T18:40:57.472Z,16.07
2019-03-02T18:43:29.080Z,15.98
2019-03-02T18:46:00.989Z,16.50
2019-03-02T18:48:50.012Z,15.35
2019-03-02T18:51:41.052Z,15.10
2019-03-02T18:54:14.387Z,15.00
2019-03-02T18:56:46.206Z,14.23
2019-03-02T18:59:18.016Z,15.90
2019-03-02T19:01:50.205Z,17.30
2019-03-02T19:04:25.780Z,18.12
2019-03-02T19:06:59.289Z,19.87
2019-03-02T19:09:32.261Z,18.62
2019-03-02T19:12:03.717Z,18.95
2019-03-02T19:14:36.461Z,19.40
2019-03-02T19:17:07.949Z,17.60
2019-03-02T19:19:39.029Z,16.35
2019-03-02T19:22:10.330Z,18.80
2019-03-02T19:24:42.452Z,18.25
2019-03-02T19:27:15.444Z,17.37
2019-03-02T19:29:47.312Z,20.17
2019-03-02T19:32:19.208Z,17.75
2019-03-02T19:34:51.143Z,18.20
2019-03-02T19:37:22.966Z,18.87
2019-03-02T19:39:55.858Z,19.48
2019-03-02T19:42:27.152Z,18.05
2019-03-02T19:44:59.142Z,16.60
2019-03-02T19:47:32.234Z,15.68
2019-03-02T19:50:03.656Z,17.30
2019-03-02T19:52:35.563Z,15.95
2019-03-02T19:55:08.047Z,15.72
2019-03-02T19:57:39.337Z,16.20
2019-03-02T20:00:21.819Z,16.23
2019-03-02T20:02:53.251Z,16.15
2019-03-02T20:05:25.789Z,15.65
2019-03-02T20:07:57.420Z,16.07
2019-03-02T20:10:29.407Z,15.45
2019-03-02T20:13:01.030Z,15.65
2019-03-02T20:15:32.276Z,16.15
2019-03-02T20:18:03.283Z,15.45
2019-03-02T20:20:34.755Z,16.40
2019-03-02T20:23:06.188Z,16.55
2019-03-02T20:25:37.741Z,16.57
2019-03-02T20:28:09.433Z,15.98
2019-03-02T20:30:40.416Z,17.23
2019-03-02T20:33:12.110Z,16.85
2019-03-02T20:35:44.222Z,16.10
2019-03-02T20:38:16.293Z,15.35
2019-03-02T20:40:47.469Z,17.70
2019-03-02T20:43:18.879Z,16.97
2019-03-02T20:45:50.479Z,18.20
2019-03-02T20:48:22.033Z,18.30
2019-03-02T20:50:53.287Z,18.12
2019-03-02T20:53:24.550Z,20.88
2019-03-02T20:55:56.525Z,23.15
2019-03-02T20:58:28.142Z,20.10
2019-03-02T21:01:00.079Z,18.32
2019-03-02T21:03:31.447Z,19.15
2019-03-02T21:06:03.354Z,19.55
2019-03-02T21:08:35.242Z,18.87
2019-03-02T21:11:07.260Z,20.95
2019-03-02T21:13:38.855Z,19.40
2019-03-02T21:16:10.753Z,20.85
2019-03-02T21:18:42.076Z,20.10
2019-03-02T21:21:14.261Z,20.97
2019-03-02T21:23:45.884Z,20.92
2019-03-02T21:26:17.180Z,21.40
2019-03-02T21:28:48.346Z,21.65
2019-03-02T21:31:20.400Z,23.35
2019-03-02T21:33:52.049Z,23.20
2019-03-02T21:36:24.077Z,20.62
2019-03-02T21:38:55.758Z,22.75
2019-03-02T21:41:27.101Z,23.10
2019-03-02T21:43:58.722Z,22.52
2019-03-02T21:46:30.633Z,22.22
2019-03-02T21:49:01.722Z,22.75
2019-03-02T21:51:33.286Z,21.85
2019-03-02T21:54:06.327Z,21.48
2019-03-02T21:56:37.923Z,21.55
2019-03-02T21:59:09.867Z,20.60
2019-03-02T22:01:41.437Z,22.67
2019-03-02T22:04:13.386Z,21.52
2019-03-02T22:06:45.040Z,22.98
2019-03-02T22:09:16.318Z,21.77
2019-03-02T22:11:47.857Z,22.10
2019-03-02T22:14:19.112Z,22.45
2019-03-02T22:16:50.453Z,22.77
2019-03-02T22:19:21.706Z,22.90
2019-03-02T22:21:53.262Z,20.40
2019-03-02T22:24:25.162Z,21.12
2019-03-02T22:26:56.792Z,22.02
2019-03-02T22:29:30.553Z,23.25
2019-03-02T22:32:01.916Z,22.60
2019-03-02T22:34:34.045Z,23.57
2019-03-02T22:37:05.320Z,21.15
2019-03-02T22:39:37.189Z,23.67
2019-03-02T22:42:09.291Z,21.55
2019-03-02T22:44:41.462Z,21.73
2019-03-02T22:47:13.592Z,22.25
2019-03-02T22:49:45.382Z,22.90
2019-03-02T22:52:16.712Z,23.38
2019-03-02T22:54:48.377Z,23.67
2019-03-02T22:57:20.440Z,23.40
2019-03-02T23:00:43.296Z,23.25
2019-03-02T23:03:13.569Z,22.45
2019-03-02T23:05:45.996Z,22.25
2019-03-02T23:08:18.070Z,21.75
2019-03-02T23:10:49.784Z,20.90
2019-03-02T23:13:21.677Z,21.85
2019-03-02T23:15:53.294Z,20.90
2019-03-02T23:18:25.087Z,19.60
2019-03-02T23:20:56.882Z,19.05
2019-03-02T23:23:28.619Z,19.00
2019-03-02T23:26:00.254Z,19.20
2019-03-02T23:28:31.610Z,18.62
2019-03-02T23:31:03.315Z,17.77
2019-03-02T23:33:35.333Z,17.02
2019-03-02T23:36:07.037Z,17.82
2019-03-02T23:38:38.327Z,18.05
2019-03-02T23:41:10.160Z,18.37
2019-03-02T23:43:41.978Z,17.65
2019-03-02T23:46:13.900Z,18.87
2019-03-02T23:48:46.089Z,17.52
2019-03-02T23:51:17.636Z,16.23
2019-03-02T23:53:48.944Z,15.37
2019-03-02T23:56:20.833Z,15.13
2019-03-02T23:58:51.841Z,14.23
